sensor_id;sensor_type;location;lat;lon;timestamp;temperature;humidity
12971;DHT22;6550;48.650;8.774;2023-08-17T00:00:13;20.70;99.90
12971;DHT22;6550;48.650;8.774;2023-08-17T00:02:41;20.60;99.90
12971;DHT22;6550;48.650;8.774;2023-08-17T00:05:12;20.60;99.90
12971;DHT22;6550;48.650;8.774;2023-08-17T00:07:39;20.80;99.90
12971;DHT22;6550;48.650;8.774;2023-08-17T00:10:09;21.10;99.90
12971;DHT22;6550;48.650;8.774;2023-08-17T00:12:36;20.50;99.90
12971;DHT22;6550;48.650;8.774;2023-08-17T00:15:03;20.20;99.90
12971;DHT22;6550;48.650;8.774;2023-08-17T00:17:30;20.60;99.90
12971;DHT22;6550;48.650;8.774;2023-08-17T00:19:56;20.50;99.90
12971;DHT22;6550;48.650;8.774;2023-08-17T00:22:23;19.80;99.90
12971;DHT22;6550;48.650;8.774;2023-08-17T00:24:50;20.40;99.90
12971;DHT22;6550;48.650;8.774;2023-08-17T00:27:21;20.20;99.90
12971;DHT22;6550;48.650;8.774;2023-08-17T00:29:48;20.00;99.90
12971;DHT22;6550;48.650;8.774;2023-08-17T00:32:18;20.10;99.90
12971;DHT22;6550;48.650;8.774;2023-08-17T00:34:49;20.00;99.90
12971;DHT22;6550;48.650;8.774;2023-08-17T00:37:15;19.90;99.90
12971;DHT22;6550;48.650;8.774;2023-08-17T00:39:45;20.00;99.90
12971;DHT22;6550;48.650;8.774;2023-08-17T00:42:12;19.90;99.90
12971;DHT22;6550;48.650;8.774;2023-08-17T00:44:39;19.80;99.90
12971;DHT22;6550;48.650;8.774;2023-08-17T00:47:05;19.90;99.90
12971;DHT22;6550;48.650;8.774;2023-08-17T00:49:34;19.70;99.90
12971;DHT22;6550;48.650;8.774;2023-08-17T00:52:01;19.80;99.90
12971;DHT22;6550;48.650;8.774;2023-08-17T00:54:29;19.80;99.90
12971;DHT22;6550;48.650;8.774;2023-08-17T00:56:56;19.70;99.90
12971;DHT22;6550;48.650;8.774;2023-08-17T00:59:23;20.20;99.90
12971;DHT22;6550;48.650;8.774;2023-08-17T01:01:54;19.80;99.90
12971;DHT22;6550;48.650;8.774;2023-08-17T01:06:48;20.00;99.90
12971;DHT22;6550;48.650;8.774;2023-08-17T01:11:53;19.90;99.90
12971;DHT22;6550;48.650;8.774;2023-08-17T01:14:29;19.70;99.90
12971;DHT22;6550;48.650;8.774;2023-08-17T01:17:10;19.60;99.90
12971;DHT22;6550;48.650;8.774;2023-08-17T01:19:41;19.60;99.90
12971;DHT22;6550;48.650;8.774;2023-08-17T01:22:14;19.70;99.90
12971;DHT22;6550;48.650;8.774;2023-08-17T01:24:46;19.70;99.90
12971;DHT22;6550;48.650;8.774;2023-08-17T01:27:18;20.40;99.90
12971;DHT22;6550;48.650;8.774;2023-08-17T01:29:45;19.90;99.90
12971;DHT22;6550;48.650;8.774;2023-08-17T01:32:39;19.60;99.90
12971;DHT22;6550;48.650;8.774;2023-08-17T01:37:47;19.80;99.90
12971;DHT22;6550;48.650;8.774;2023-08-17T01:40:18;19.60;99.90
12971;DHT22;6550;48.650;8.774;2023-08-17T01:42:49;19.30;99.90
12971;DHT22;6550;48.650;8.774;2023-08-17T01:45:17;20.00;99.90
12971;DHT22;6550;48.650;8.774;2023-08-17T01:47:44;20.70;99.90
12971;DHT22;6550;48.650;8.774;2023-08-17T01:50:11;19.90;99.90
12971;DHT22;6550;48.650;8.774;2023-08-17T01:52:38;20.20;99.90
12971;DHT22;6550;48.650;8.774;2023-08-17T01:55:05;20.30;99.90
12971;DHT22;6550;48.650;8.774;2023-08-17T01:57:32;20.20;99.90
12971;DHT22;6550;48.650;8.774;2023-08-17T02:00:01;20.20;99.90
12971;DHT22;6550;48.650;8.774;2023-08-17T02:02:31;20.40;99.90
12971;DHT22;6550;48.650;8.774;2023-08-17T02:04:58;20.30;99.90
12971;DHT22;6550;48.650;8.774;2023-08-17T02:07:28;20.80;99.90
12971;DHT22;6550;48.650;8.774;2023-08-17T02:09:55;20.30;99.90
12971;DHT22;6550;48.650;8.774;2023-08-17T02:12:22;20.20;99.90
12971;DHT22;6550;48.650;8.774;2023-08-17T02:14:49;20.00;99.90
12971;DHT22;6550;48.650;8.774;2023-08-17T02:17:15;19.70;99.90
12971;DHT22;6550;48.650;8.774;2023-08-17T02:19:43;20.10;99.90
12971;DHT22;6550;48.650;8.774;2023-08-17T02:22:16;20.00;99.90
12971;DHT22;6550;48.650;8.774;2023-08-17T02:24:43;20.00;99.90
12971;DHT22;6550;48.650;8.774;2023-08-17T02:27:10;19.90;99.90
12971;DHT22;6550;48.650;8.774;2023-08-17T02:29:39;20.20;99.90
12971;DHT22;6550;48.650;8.774;2023-08-17T02:32:09;20.10;99.90
12971;DHT22;6550;48.650;8.774;2023-08-17T02:34:36;20.10;99.90
12971;DHT22;6550;48.650;8.774;2023-08-17T02:37:02;19.80;99.90
12971;DHT22;6550;48.650;8.774;2023-08-17T02:39:29;19.60;99.90
12971;DHT22;6550;48.650;8.774;2023-08-17T02:41:58;19.40;99.90
12971;DHT22;6550;48.650;8.774;2023-08-17T02:44:25;19.00;99.90
12971;DHT22;6550;48.650;8.774;2023-08-17T02:46:54;20.30;99.90
12971;DHT22;6550;48.650;8.774;2023-08-17T02:49:20;20.10;99.90
12971;DHT22;6550;48.650;8.774;2023-08-17T02:51:47;20.00;99.90
12971;DHT22;6550;48.650;8.774;2023-08-17T02:54:14;20.00;99.90
12971;DHT22;6550;48.650;8.774;2023-08-17T02:56:46;20.10;99.90
12971;DHT22;6550;48.650;8.774;2023-08-17T02:59:15;20.10;99.90
12971;DHT22;6550;48.650;8.774;2023-08-17T03:01:47;20.00;99.90
12971;DHT22;6550;48.650;8.774;2023-08-17T03:04:19;19.70;99.90
12971;DHT22;6550;48.650;8.774;2023-08-17T03:06:45;19.50;99.90
12971;DHT22;6550;48.650;8.774;2023-08-17T03:09:12;19.70;99.90
12971;DHT22;6550;48.650;8.774;2023-08-17T03:11:41;19.90;99.90
12971;DHT22;6550;48.650;8.774;2023-08-17T03:14:08;19.60;99.90
12971;DHT22;6550;48.650;8.774;2023-08-17T03:16:38;20.00;99.90
12971;DHT22;6550;48.650;8.774;2023-08-17T03:19:06;20.10;99.90
12971;DHT22;6550;48.650;8.774;2023-08-17T03:21:34;19.90;99.90
12971;DHT22;6550;48.650;8.774;2023-08-17T03:24:04;19.90;99.90
12971;DHT22;6550;48.650;8.774;2023-08-17T03:26:31;19.80;99.90
12971;DHT22;6550;48.650;8.774;2023-08-17T03:28:58;19.10;99.90
12971;DHT22;6550;48.650;8.774;2023-08-17T03:31:29;20.10;99.90
12971;DHT22;6550;48.650;8.774;2023-08-17T03:33:59;19.90;99.90
12971;DHT22;6550;48.650;8.774;2023-08-17T03:36:29;19.90;99.90
12971;DHT22;6550;48.650;8.774;2023-08-17T03:38:56;20.00;99.90
12971;DHT22;6550;48.650;8.774;2023-08-17T03:41:25;19.90;99.90
12971;DHT22;6550;48.650;8.774;2023-08-17T03:43:55;19.90;99.90
12971;DHT22;6550;48.650;8.774;2023-08-17T03:46:21;19.80;99.90
12971;DHT22;6550;48.650;8.774;2023-08-17T03:48:50;19.80;99.90
12971;DHT22;6550;48.650;8.774;2023-08-17T03:51:17;19.80;99.90
12971;DHT22;6550;48.650;8.774;2023-08-17T03:53:46;19.70;99.90
12971;DHT22;6550;48.650;8.774;2023-08-17T03:56:13;19.80;99.90
12971;DHT22;6550;48.650;8.774;2023-08-17T03:58:40;19.80;99.90
12971;DHT22;6550;48.650;8.774;2023-08-17T04:01:09;19.70;99.90
12971;DHT22;6550;48.650;8.774;2023-08-17T04:03:40;19.70;99.90
12971;DHT22;6550;48.650;8.774;2023-08-17T04:06:08;19.80;99.90
12971;DHT22;6550;48.650;8.774;2023-08-17T04:08:37;19.90;99.90
12971;DHT22;6550;48.650;8.774;2023-08-17T04:11:07;19.80;99.90
12971;DHT22;6550;48.650;8.774;2023-08-17T04:13:34;19.90;99.90
12971;DHT22;6550;48.650;8.774;2023-08-17T04:16:01;19.60;99.90
12971;DHT22;6550;48.650;8.774;2023-08-17T04:18:27;19.70;99.90
12971;DHT22;6550;48.650;8.774;2023-08-17T04:20:57;19.70;99.90
12971;DHT22;6550;48.650;8.774;2023-08-17T04:23:24;19.50;99.90
12971;DHT22;6550;48.650;8.774;2023-08-17T04:25:54;19.90;99.90
12971;DHT22;6550;48.650;8.774;2023-08-17T04:28:23;19.60;99.90
12971;DHT22;6550;48.650;8.774;2023-08-17T04:30:53;19.80;99.90
12971;DHT22;6550;48.650;8.774;2023-08-17T04:33:19;19.70;99.90
12971;DHT22;6550;48.650;8.774;2023-08-17T04:35:48;19.90;99.90
12971;DHT22;6550;48.650;8.774;2023-08-17T04:38:15;19.90;99.90
12971;DHT22;6550;48.650;8.774;2023-08-17T04:40:45;19.70;99.90
12971;DHT22;6550;48.650;8.774;2023-08-17T04:43:14;19.80;99.90
12971;DHT22;6550;48.650;8.774;2023-08-17T04:45:43;19.80;99.90
12971;DHT22;6550;48.650;8.774;2023-08-17T04:48:14;19.90;99.90
12971;DHT22;6550;48.650;8.774;2023-08-17T04:50:40;19.90;99.90
12971;DHT22;6550;48.650;8.774;2023-08-17T04:53:08;19.90;99.90
12971;DHT22;6550;48.650;8.774;2023-08-17T04:55:37;20.10;99.90
12971;DHT22;6550;48.650;8.774;2023-08-17T04:58:08;20.30;99.90
12971;DHT22;6550;48.650;8.774;2023-08-17T05:00:35;20.40;99.90
12971;DHT22;6550;48.650;8.774;2023-08-17T05:03:02;20.30;99.90
12971;DHT22;6550;48.650;8.774;2023-08-17T05:05:29;20.20;99.90
12971;DHT22;6550;48.650;8.774;2023-08-17T05:07:55;19.90;99.90
12971;DHT22;6550;48.650;8.774;2023-08-17T05:10:25;19.90;99.90
12971;DHT22;6550;48.650;8.774;2023-08-17T05:12:54;19.50;99.90
12971;DHT22;6550;48.650;8.774;2023-08-17T05:15:21;19.60;99.90
12971;DHT22;6550;48.650;8.774;2023-08-17T05:17:48;19.30;99.90
12971;DHT22;6550;48.650;8.774;2023-08-17T05:20:15;19.40;99.90
12971;DHT22;6550;48.650;8.774;2023-08-17T05:22:47;19.20;99.90
12971;DHT22;6550;48.650;8.774;2023-08-17T05:25:14;19.50;99.90
12971;DHT22;6550;48.650;8.774;2023-08-17T05:30:10;19.80;99.90
12971;DHT22;6550;48.650;8.774;2023-08-17T05:32:37;19.90;99.90
12971;DHT22;6550;48.650;8.774;2023-08-17T05:35:08;20.00;99.90
12971;DHT22;6550;48.650;8.774;2023-08-17T05:37:35;20.00;99.90
12971;DHT22;6550;48.650;8.774;2023-08-17T05:40:02;20.80;99.90
12971;DHT22;6550;48.650;8.774;2023-08-17T05:42:32;20.20;99.90
12971;DHT22;6550;48.650;8.774;2023-08-17T05:45:01;20.30;99.90
12971;DHT22;6550;48.650;8.774;2023-08-17T05:47:30;20.30;99.90
12971;DHT22;6550;48.650;8.774;2023-08-17T05:49:59;19.90;99.90
12971;DHT22;6550;48.650;8.774;2023-08-17T05:52:25;20.40;99.90
12971;DHT22;6550;48.650;8.774;2023-08-17T05:54:55;20.40;99.90
12971;DHT22;6550;48.650;8.774;2023-08-17T05:57:21;20.80;99.90
12971;DHT22;6550;48.650;8.774;2023-08-17T05:59:51;20.10;99.90
12971;DHT22;6550;48.650;8.774;2023-08-17T06:02:19;19.70;99.90
12971;DHT22;6550;48.650;8.774;2023-08-17T06:04:49;19.70;99.90
12971;DHT22;6550;48.650;8.774;2023-08-17T06:07:16;19.40;99.90
12971;DHT22;6550;48.650;8.774;2023-08-17T06:09:42;19.30;99.90
12971;DHT22;6550;48.650;8.774;2023-08-17T06:12:09;19.30;99.90
12971;DHT22;6550;48.650;8.774;2023-08-17T06:14:39;19.40;99.90
12971;DHT22;6550;48.650;8.774;2023-08-17T06:17:08;19.40;99.90
12971;DHT22;6550;48.650;8.774;2023-08-17T06:19:35;19.30;99.90
12971;DHT22;6550;48.650;8.774;2023-08-17T06:22:02;20.00;99.90
12971;DHT22;6550;48.650;8.774;2023-08-17T06:24:31;19.70;99.90
12971;DHT22;6550;48.650;8.774;2023-08-17T06:26:58;19.90;99.90
12971;DHT22;6550;48.650;8.774;2023-08-17T06:29:26;19.80;99.90
12971;DHT22;6550;48.650;8.774;2023-08-17T06:31:53;20.10;99.90
12971;DHT22;6550;48.650;8.774;2023-08-17T06:37:02;20.40;99.90
12971;DHT22;6550;48.650;8.774;2023-08-17T06:39:29;20.60;99.90
12971;DHT22;6550;48.650;8.774;2023-08-17T06:41:56;20.70;99.90
12971;DHT22;6550;48.650;8.774;2023-08-17T06:44:23;20.70;99.90
12971;DHT22;6550;48.650;8.774;2023-08-17T06:46:55;20.80;99.90
12971;DHT22;6550;48.650;8.774;2023-08-17T06:49:21;21.10;99.90
12971;DHT22;6550;48.650;8.774;2023-08-17T06:51:48;21.10;99.90
12971;DHT22;6550;48.650;8.774;2023-08-17T06:54:15;21.10;99.90
12971;DHT22;6550;48.650;8.774;2023-08-17T06:56:44;21.90;99.90
12971;DHT22;6550;48.650;8.774;2023-08-17T06:59:11;21.30;99.90
12971;DHT22;6550;48.650;8.774;2023-08-17T07:01:38;21.40;99.90
12971;DHT22;6550;48.650;8.774;2023-08-17T07:04:05;21.50;99.90
12971;DHT22;6550;48.650;8.774;2023-08-17T07:06:34;21.70;99.90
12971;DHT22;6550;48.650;8.774;2023-08-17T07:09:01;21.90;99.90
12971;DHT22;6550;48.650;8.774;2023-08-17T07:11:31;22.00;99.90
12971;DHT22;6550;48.650;8.774;2023-08-17T07:13:58;22.10;99.90
12971;DHT22;6550;48.650;8.774;2023-08-17T07:16:25;22.10;99.90
12971;DHT22;6550;48.650;8.774;2023-08-17T07:18:52;22.20;99.90
12971;DHT22;6550;48.650;8.774;2023-08-17T07:21:19;22.30;99.90
12971;DHT22;6550;48.650;8.774;2023-08-17T07:23:46;22.60;99.90
12971;DHT22;6550;48.650;8.774;2023-08-17T07:26:15;22.50;99.90
12971;DHT22;6550;48.650;8.774;2023-08-17T07:28:42;22.60;99.90
12971;DHT22;6550;48.650;8.774;2023-08-17T07:31:11;22.90;99.90
12971;DHT22;6550;48.650;8.774;2023-08-17T07:33:38;23.10;99.90
12971;DHT22;6550;48.650;8.774;2023-08-17T07:36:05;23.30;99.90
12971;DHT22;6550;48.650;8.774;2023-08-17T07:38:32;23.50;99.90
12971;DHT22;6550;48.650;8.774;2023-08-17T07:41:06;23.90;99.90
12971;DHT22;6550;48.650;8.774;2023-08-17T07:43:37;23.90;99.90
12971;DHT22;6550;48.650;8.774;2023-08-17T07:46:04;24.10;99.90
12971;DHT22;6550;48.650;8.774;2023-08-17T07:48:33;24.30;99.90
12971;DHT22;6550;48.650;8.774;2023-08-17T07:51:00;24.50;99.90
12971;DHT22;6550;48.650;8.774;2023-08-17T07:53:27;24.60;99.90
12971;DHT22;6550;48.650;8.774;2023-08-17T07:55:56;24.70;99.90
12971;DHT22;6550;48.650;8.774;2023-08-17T07:58:24;24.90;99.90
12971;DHT22;6550;48.650;8.774;2023-08-17T08:00:53;25.20;99.90
12971;DHT22;6550;48.650;8.774;2023-08-17T08:03:19;25.30;99.90
12971;DHT22;6550;48.650;8.774;2023-08-17T08:05:46;25.50;99.90
12971;DHT22;6550;48.650;8.774;2023-08-17T08:08:13;25.70;99.90
12971;DHT22;6550;48.650;8.774;2023-08-17T08:10:41;25.70;99.90
12971;DHT22;6550;48.650;8.774;2023-08-17T08:13:10;25.70;99.90
12971;DHT22;6550;48.650;8.774;2023-08-17T08:15:37;26.00;99.90
12971;DHT22;6550;48.650;8.774;2023-08-17T08:18:04;26.20;99.90
12971;DHT22;6550;48.650;8.774;2023-08-17T08:27:52;26.30;99.90
12971;DHT22;6550;48.650;8.774;2023-08-17T08:32:48;26.70;99.90
12971;DHT22;6550;48.650;8.774;2023-08-17T08:35:17;26.80;99.90
12971;DHT22;6550;48.650;8.774;2023-08-17T08:37:44;27.00;99.90
12971;DHT22;6550;48.650;8.774;2023-08-17T08:40:11;27.10;99.90
12971;DHT22;6550;48.650;8.774;2023-08-17T08:42:42;27.10;99.90
12971;DHT22;6550;48.650;8.774;2023-08-17T08:45:10;26.80;99.90
12971;DHT22;6550;48.650;8.774;2023-08-17T08:47:41;26.80;99.90
12971;DHT22;6550;48.650;8.774;2023-08-17T08:50:12;26.90;99.90
12971;DHT22;6550;48.650;8.774;2023-08-17T08:52:47;26.90;99.90
12971;DHT22;6550;48.650;8.774;2023-08-17T08:55:19;26.70;99.90
12971;DHT22;6550;48.650;8.774;2023-08-17T08:57:49;26.80;99.90
12971;DHT22;6550;48.650;8.774;2023-08-17T09:00:18;27.10;99.90
12971;DHT22;6550;48.650;8.774;2023-08-17T09:02:45;27.20;99.90
12971;DHT22;6550;48.650;8.774;2023-08-17T09:05:12;26.80;99.90
12971;DHT22;6550;48.650;8.774;2023-08-17T09:07:41;26.30;99.90
12971;DHT22;6550;48.650;8.774;2023-08-17T09:10:10;26.10;99.90
12971;DHT22;6550;48.650;8.774;2023-08-17T09:12:41;26.00;99.90
12971;DHT22;6550;48.650;8.774;2023-08-17T09:15:14;26.50;99.90
12971;DHT22;6550;48.650;8.774;2023-08-17T09:17:40;26.70;99.90
12971;DHT22;6550;48.650;8.774;2023-08-17T09:20:10;26.40;99.90
12971;DHT22;6550;48.650;8.774;2023-08-17T09:22:41;26.70;99.90
12971;DHT22;6550;48.650;8.774;2023-08-17T09:25:10;27.20;99.90
12971;DHT22;6550;48.650;8.774;2023-08-17T09:27:37;26.90;99.90
12971;DHT22;6550;48.650;8.774;2023-08-17T09:30:09;27.50;99.90
12971;DHT22;6550;48.650;8.774;2023-08-17T09:35:05;28.20;99.90
12971;DHT22;6550;48.650;8.774;2023-08-17T09:37:34;27.90;99.90
12971;DHT22;6550;48.650;8.774;2023-08-17T09:40:01;28.00;99.90
12971;DHT22;6550;48.650;8.774;2023-08-17T09:42:28;27.60;99.90
12971;DHT22;6550;48.650;8.774;2023-08-17T09:47:23;28.00;99.90
12971;DHT22;6550;48.650;8.774;2023-08-17T09:49:53;28.20;99.90
12971;DHT22;6550;48.650;8.774;2023-08-17T09:52:21;28.30;99.90
12971;DHT22;6550;48.650;8.774;2023-08-17T09:54:56;28.20;99.90
12971;DHT22;6550;48.650;8.774;2023-08-17T09:57:27;28.40;99.90
12971;DHT22;6550;48.650;8.774;2023-08-17T09:59:54;28.50;99.90
12971;DHT22;6550;48.650;8.774;2023-08-17T10:02:24;28.50;99.90
12971;DHT22;6550;48.650;8.774;2023-08-17T10:04:57;28.70;99.90
12971;DHT22;6550;48.650;8.774;2023-08-17T10:07:30;28.80;99.90
12971;DHT22;6550;48.650;8.774;2023-08-17T10:10:05;29.00;99.90
12971;DHT22;6550;48.650;8.774;2023-08-17T10:12:44;29.00;99.90
12971;DHT22;6550;48.650;8.774;2023-08-17T10:15:15;29.20;99.90
12971;DHT22;6550;48.650;8.774;2023-08-17T10:20:48;29.30;99.90
12971;DHT22;6550;48.650;8.774;2023-08-17T10:23:17;29.40;99.90
12971;DHT22;6550;48.650;8.774;2023-08-17T10:25:45;29.30;99.90
12971;DHT22;6550;48.650;8.774;2023-08-17T10:28:20;29.50;99.90
12971;DHT22;6550;48.650;8.774;2023-08-17T10:30:48;29.60;99.90
12971;DHT22;6550;48.650;8.774;2023-08-17T10:33:15;29.10;99.90
12971;DHT22;6550;48.650;8.774;2023-08-17T10:38:12;28.50;99.90
12971;DHT22;6550;48.650;8.774;2023-08-17T10:40:44;28.50;99.90
12971;DHT22;6550;48.650;8.774;2023-08-17T10:43:12;28.70;99.90
12971;DHT22;6550;48.650;8.774;2023-08-17T10:45:39;29.40;99.90
12971;DHT22;6550;48.650;8.774;2023-08-17T10:48:25;29.90;99.90
12971;DHT22;6550;48.650;8.774;2023-08-17T10:51:01;29.50;99.90
12971;DHT22;6550;48.650;8.774;2023-08-17T10:53:34;29.70;99.90
12971;DHT22;6550;48.650;8.774;2023-08-17T10:56:01;29.80;99.90
12971;DHT22;6550;48.650;8.774;2023-08-17T10:58:32;30.40;99.90
12971;DHT22;6550;48.650;8.774;2023-08-17T11:01:00;30.60;99.90
12971;DHT22;6550;48.650;8.774;2023-08-17T11:03:27;30.30;99.90
12971;DHT22;6550;48.650;8.774;2023-08-17T11:08:34;30.60;99.90
12971;DHT22;6550;48.650;8.774;2023-08-17T11:11:15;30.40;99.90
12971;DHT22;6550;48.650;8.774;2023-08-17T11:13:43;30.60;99.90
12971;DHT22;6550;48.650;8.774;2023-08-17T11:16:16;30.60;99.90
12971;DHT22;6550;48.650;8.774;2023-08-17T11:18:46;30.80;99.90
12971;DHT22;6550;48.650;8.774;2023-08-17T11:21:16;31.00;99.90
12971;DHT22;6550;48.650;8.774;2023-08-17T11:23:46;31.10;99.90
12971;DHT22;6550;48.650;8.774;2023-08-17T11:26:16;30.30;99.90
12971;DHT22;6550;48.650;8.774;2023-08-17T11:28:43;29.60;99.90
12971;DHT22;6550;48.650;8.774;2023-08-17T11:31:13;30.20;99.90
12971;DHT22;6550;48.650;8.774;2023-08-17T11:33:42;30.10;99.90
12971;DHT22;6550;48.650;8.774;2023-08-17T11:36:12;30.70;99.90
12971;DHT22;6550;48.650;8.774;2023-08-17T11:38:41;30.90;99.90
12971;DHT22;6550;48.650;8.774;2023-08-17T11:43:43;31.30;99.90
12971;DHT22;6550;48.650;8.774;2023-08-17T11:46:11;31.30;99.90
12971;DHT22;6550;48.650;8.774;2023-08-17T11:48:39;31.30;99.90
12971;DHT22;6550;48.650;8.774;2023-08-17T11:51:08;31.10;99.90
12971;DHT22;6550;48.650;8.774;2023-08-17T11:53:36;30.80;99.50
12971;DHT22;6550;48.650;8.774;2023-08-17T11:56:05;30.70;99.70
12971;DHT22;6550;48.650;8.774;2023-08-17T11:58:42;30.50;99.50
12971;DHT22;6550;48.650;8.774;2023-08-17T12:01:11;30.40;99.50
12971;DHT22;6550;48.650;8.774;2023-08-17T12:03:46;30.30;99.90
12971;DHT22;6550;48.650;8.774;2023-08-17T12:06:18;30.30;99.90
12971;DHT22;6550;48.650;8.774;2023-08-17T12:08:48;30.30;99.90
12971;DHT22;6550;48.650;8.774;2023-08-17T12:11:16;30.10;99.90
12971;DHT22;6550;48.650;8.774;2023-08-17T12:13:49;30.00;99.90
12971;DHT22;6550;48.650;8.774;2023-08-17T12:16:20;28.90;97.50
12971;DHT22;6550;48.650;8.774;2023-08-17T12:18:51;28.80;96.60
12971;DHT22;6550;48.650;8.774;2023-08-17T12:21:26;28.20;95.80
12971;DHT22;6550;48.650;8.774;2023-08-17T12:23:55;27.70;96.30
12971;DHT22;6550;48.650;8.774;2023-08-17T12:26:24;28.00;95.10
12971;DHT22;6550;48.650;8.774;2023-08-17T12:28:51;27.80;93.80
12971;DHT22;6550;48.650;8.774;2023-08-17T12:31:22;27.80;94.30
12971;DHT22;6550;48.650;8.774;2023-08-17T12:33:50;27.70;93.60
12971;DHT22;6550;48.650;8.774;2023-08-17T12:36:20;27.70;93.90
12971;DHT22;6550;48.650;8.774;2023-08-17T12:38:48;27.70;94.70
12971;DHT22;6550;48.650;8.774;2023-08-17T12:41:15;27.80;94.80
12971;DHT22;6550;48.650;8.774;2023-08-17T12:43:44;27.90;96.00
12971;DHT22;6550;48.650;8.774;2023-08-17T12:46:12;27.90;95.80
12971;DHT22;6550;48.650;8.774;2023-08-17T12:48:41;27.90;96.60
12971;DHT22;6550;48.650;8.774;2023-08-17T12:51:07;27.90;96.50
12971;DHT22;6550;48.650;8.774;2023-08-17T12:53:34;27.80;97.20
12971;DHT22;6550;48.650;8.774;2023-08-17T12:56:03;27.70;97.10
12971;DHT22;6550;48.650;8.774;2023-08-17T12:58:30;27.70;97.10
12971;DHT22;6550;48.650;8.774;2023-08-17T13:00:57;27.60;97.80
12971;DHT22;6550;48.650;8.774;2023-08-17T13:03:24;27.60;97.80
12971;DHT22;6550;48.650;8.774;2023-08-17T13:05:51;27.60;98.10
12971;DHT22;6550;48.650;8.774;2023-08-17T13:08:18;27.30;97.80
12971;DHT22;6550;48.650;8.774;2023-08-17T13:10:45;26.90;98.70
12971;DHT22;6550;48.650;8.774;2023-08-17T13:13:14;26.60;98.60
12971;DHT22;6550;48.650;8.774;2023-08-17T13:15:41;26.60;99.40
12971;DHT22;6550;48.650;8.774;2023-08-17T13:18:09;26.70;99.90
12971;DHT22;6550;48.650;8.774;2023-08-17T13:20:36;26.70;99.90
12971;DHT22;6550;48.650;8.774;2023-08-17T13:25:32;26.80;99.90
12971;DHT22;6550;48.650;8.774;2023-08-17T13:27:59;26.80;99.90
12971;DHT22;6550;48.650;8.774;2023-08-17T13:32:53;26.70;99.90
12971;DHT22;6550;48.650;8.774;2023-08-17T13:35:24;26.60;99.90
12971;DHT22;6550;48.650;8.774;2023-08-17T13:37:54;26.10;99.90
12971;DHT22;6550;48.650;8.774;2023-08-17T13:40:21;26.00;99.90
12971;DHT22;6550;48.650;8.774;2023-08-17T13:42:47;26.30;99.90
12971;DHT22;6550;48.650;8.774;2023-08-17T13:45:17;26.30;99.90
12971;DHT22;6550;48.650;8.774;2023-08-17T13:47:43;26.40;99.90
12971;DHT22;6550;48.650;8.774;2023-08-17T13:50:13;26.30;99.90
12971;DHT22;6550;48.650;8.774;2023-08-17T13:52:39;26.40;99.90
12971;DHT22;6550;48.650;8.774;2023-08-17T13:55:09;26.50;99.90
12971;DHT22;6550;48.650;8.774;2023-08-17T13:57:35;26.60;99.90
12971;DHT22;6550;48.650;8.774;2023-08-17T14:00:06;26.70;99.90
12971;DHT22;6550;48.650;8.774;2023-08-17T14:02:33;26.80;99.90
12971;DHT22;6550;48.650;8.774;2023-08-17T14:05:03;26.80;99.90
12971;DHT22;6550;48.650;8.774;2023-08-17T14:09:58;27.00;99.90
12971;DHT22;6550;48.650;8.774;2023-08-17T14:12:36;27.20;99.90
12971;DHT22;6550;48.650;8.774;2023-08-17T14:15:03;27.70;99.90
12971;DHT22;6550;48.650;8.774;2023-08-17T14:17:30;28.00;99.90
12971;DHT22;6550;48.650;8.774;2023-08-17T14:19:59;28.00;99.90
12971;DHT22;6550;48.650;8.774;2023-08-17T14:22:26;28.20;99.90
12971;DHT22;6550;48.650;8.774;2023-08-17T14:24:54;28.60;99.90
12971;DHT22;6550;48.650;8.774;2023-08-17T14:27:23;28.90;99.90
12971;DHT22;6550;48.650;8.774;2023-08-17T14:29:52;29.30;99.90
12971;DHT22;6550;48.650;8.774;2023-08-17T14:32:21;29.80;99.90
12971;DHT22;6550;48.650;8.774;2023-08-17T14:34:55;30.20;99.90
12971;DHT22;6550;48.650;8.774;2023-08-17T14:37:24;30.60;99.90
12971;DHT22;6550;48.650;8.774;2023-08-17T14:39:54;30.70;99.90
12971;DHT22;6550;48.650;8.774;2023-08-17T14:42:23;31.00;99.90
12971;DHT22;6550;48.650;8.774;2023-08-17T14:44:53;31.00;99.90
12971;DHT22;6550;48.650;8.774;2023-08-17T14:47:21;31.10;99.90
12971;DHT22;6550;48.650;8.774;2023-08-17T14:49:48;31.10;99.90
12971;DHT22;6550;48.650;8.774;2023-08-17T14:54:42;31.30;99.90
12971;DHT22;6550;48.650;8.774;2023-08-17T14:57:09;31.40;99.90
12971;DHT22;6550;48.650;8.774;2023-08-17T14:59:35;31.60;97.80
12971;DHT22;6550;48.650;8.774;2023-08-17T15:04:33;31.70;98.10
12971;DHT22;6550;48.650;8.774;2023-08-17T15:07:05;31.80;96.20
12971;DHT22;6550;48.650;8.774;2023-08-17T15:09:39;32.20;96.30
12971;DHT22;6550;48.650;8.774;2023-08-17T15:14:33;32.10;96.70
12971;DHT22;6550;48.650;8.774;2023-08-17T15:17:00;32.30;97.30
12971;DHT22;6550;48.650;8.774;2023-08-17T15:19:29;32.50;96.70
12971;DHT22;6550;48.650;8.774;2023-08-17T15:22:03;32.70;96.60
12971;DHT22;6550;48.650;8.774;2023-08-17T15:24:30;32.90;96.20
12971;DHT22;6550;48.650;8.774;2023-08-17T15:26:57;32.80;95.70
12971;DHT22;6550;48.650;8.774;2023-08-17T15:29:24;33.00;95.50
12971;DHT22;6550;48.650;8.774;2023-08-17T15:31:51;33.10;95.70
12971;DHT22;6550;48.650;8.774;2023-08-17T15:34:20;33.20;95.70
12971;DHT22;6550;48.650;8.774;2023-08-17T15:36:47;33.30;94.80
12971;DHT22;6550;48.650;8.774;2023-08-17T15:39:16;33.50;95.40
12971;DHT22;6550;48.650;8.774;2023-08-17T15:41:42;33.60;95.10
12971;DHT22;6550;48.650;8.774;2023-08-17T15:44:09;33.80;94.70
12971;DHT22;6550;48.650;8.774;2023-08-17T15:46:36;33.80;94.50
12971;DHT22;6550;48.650;8.774;2023-08-17T15:49:05;33.50;94.50
12971;DHT22;6550;48.650;8.774;2023-08-17T15:51:32;33.30;92.80
12971;DHT22;6550;48.650;8.774;2023-08-17T15:56:26;32.40;95.60
12971;DHT22;6550;48.650;8.774;2023-08-17T15:58:53;33.00;95.10
12971;DHT22;6550;48.650;8.774;2023-08-17T16:01:20;33.30;94.40
12971;DHT22;6550;48.650;8.774;2023-08-17T16:03:47;33.40;94.30
12971;DHT22;6550;48.650;8.774;2023-08-17T16:06:14;33.50;93.70
12971;DHT22;6550;48.650;8.774;2023-08-17T16:08:42;33.80;92.70
12971;DHT22;6550;48.650;8.774;2023-08-17T16:11:17;33.70;91.10
12971;DHT22;6550;48.650;8.774;2023-08-17T16:13:46;33.80;91.30
12971;DHT22;6550;48.650;8.774;2023-08-17T16:16:17;33.80;92.00
12971;DHT22;6550;48.650;8.774;2023-08-17T16:18:44;34.00;91.10
12971;DHT22;6550;48.650;8.774;2023-08-17T16:21:11;34.10;90.60
12971;DHT22;6550;48.650;8.774;2023-08-17T16:23:41;34.20;89.70
12971;DHT22;6550;48.650;8.774;2023-08-17T16:26:10;34.30;89.20
12971;DHT22;6550;48.650;8.774;2023-08-17T16:28:39;33.70;91.00
12971;DHT22;6550;48.650;8.774;2023-08-17T16:31:06;33.40;90.40
12971;DHT22;6550;48.650;8.774;2023-08-17T16:33:33;33.40;91.40
12971;DHT22;6550;48.650;8.774;2023-08-17T16:36:00;33.00;91.50
12971;DHT22;6550;48.650;8.774;2023-08-17T16:38:27;32.70;90.80
12971;DHT22;6550;48.650;8.774;2023-08-17T16:43:20;31.70;91.70
12971;DHT22;6550;48.650;8.774;2023-08-17T16:45:49;31.40;93.70
12971;DHT22;6550;48.650;8.774;2023-08-17T16:48:18;31.00;92.70
12971;DHT22;6550;48.650;8.774;2023-08-17T16:50:50;30.30;93.20